sensor_id;sensor_type;location;lat;lon;timestamp;temperature;humidity
46590;DHT22;32313;48.722;9.362;2023-09-12T00:01:35;15.60;99.90
46590;DHT22;32313;48.722;9.362;2023-09-12T00:04:00;15.60;99.90
46590;DHT22;32313;48.722;9.362;2023-09-12T00:06:26;15.60;99.90
46590;DHT22;32313;48.722;9.362;2023-09-12T00:08:52;15.60;99.90
46590;DHT22;32313;48.722;9.362;2023-09-12T00:11:18;15.60;99.90
46590;DHT22;32313;48.722;9.362;2023-09-12T00:13:44;15.50;99.90
46590;DHT22;32313;48.722;9.362;2023-09-12T00:16:10;15.40;99.90
46590;DHT22;32313;48.722;9.362;2023-09-12T00:18:37;15.40;99.90
46590;DHT22;32313;48.722;9.362;2023-09-12T00:21:03;15.30;99.90
46590;DHT22;32313;48.722;9.362;2023-09-12T00:23:28;15.30;99.90
46590;DHT22;32313;48.722;9.362;2023-09-12T00:25:54;15.20;99.90
46590;DHT22;32313;48.722;9.362;2023-09-12T00:28:20;15.20;99.90
46590;DHT22;32313;48.722;9.362;2023-09-12T00:30:46;15.20;99.90
46590;DHT22;32313;48.722;9.362;2023-09-12T00:33:12;15.20;99.90
46590;DHT22;32313;48.722;9.362;2023-09-12T00:35:38;15.20;99.90
46590;DHT22;32313;48.722;9.362;2023-09-12T00:38:04;15.20;99.90
46590;DHT22;32313;48.722;9.362;2023-09-12T00:40:29;15.10;99.90
46590;DHT22;32313;48.722;9.362;2023-09-12T00:42:55;15.10;99.90
46590;DHT22;32313;48.722;9.362;2023-09-12T00:45:21;15.00;99.90
46590;DHT22;32313;48.722;9.362;2023-09-12T00:47:48;15.00;99.90
46590;DHT22;32313;48.722;9.362;2023-09-12T00:50:15;15.00;99.90
46590;DHT22;32313;48.722;9.362;2023-09-12T00:52:42;15.10;99.90
46590;DHT22;32313;48.722;9.362;2023-09-12T00:55:09;15.10;99.90
46590;DHT22;32313;48.722;9.362;2023-09-12T00:57:35;15.00;99.90
46590;DHT22;32313;48.722;9.362;2023-09-12T01:00:05;15.10;99.90
46590;DHT22;32313;48.722;9.362;2023-09-12T01:02:42;15.10;99.90
46590;DHT22;32313;48.722;9.362;2023-09-12T01:05:10;15.10;99.90
46590;DHT22;32313;48.722;9.362;2023-09-12T01:07:37;15.00;99.90
46590;DHT22;32313;48.722;9.362;2023-09-12T01:10:04;15.00;99.90
46590;DHT22;32313;48.722;9.362;2023-09-12T01:12:30;15.00;99.90
46590;DHT22;32313;48.722;9.362;2023-09-12T01:14:56;14.90;99.90
46590;DHT22;32313;48.722;9.362;2023-09-12T01:17:23;14.90;99.90
46590;DHT22;32313;48.722;9.362;2023-09-12T01:19:50;14.90;99.90
46590;DHT22;32313;48.722;9.362;2023-09-12T01:22:32;14.90;99.90
46590;DHT22;32313;48.722;9.362;2023-09-12T01:27:49;15.00;99.90
46590;DHT22;32313;48.722;9.362;2023-09-12T01:30:21;15.00;99.90
46590;DHT22;32313;48.722;9.362;2023-09-12T01:32:48;15.00;99.90
46590;DHT22;32313;48.722;9.362;2023-09-12T01:35:15;14.90;99.90
46590;DHT22;32313;48.722;9.362;2023-09-12T01:37:40;14.70;99.90
46590;DHT22;32313;48.722;9.362;2023-09-12T01:40:07;14.70;99.90
46590;DHT22;32313;48.722;9.362;2023-09-12T01:42:45;14.70;99.90
46590;DHT22;32313;48.722;9.362;2023-09-12T01:45:15;14.60;99.90
46590;DHT22;32313;48.722;9.362;2023-09-12T01:47:47;14.60;99.90
46590;DHT22;32313;48.722;9.362;2023-09-12T01:50:16;14.60;99.90
46590;DHT22;32313;48.722;9.362;2023-09-12T01:52:43;14.60;99.90
46590;DHT22;32313;48.722;9.362;2023-09-12T01:55:10;14.60;99.90
46590;DHT22;32313;48.722;9.362;2023-09-12T01:57:37;14.60;99.90
46590;DHT22;32313;48.722;9.362;2023-09-12T02:00:03;14.70;99.90
46590;DHT22;32313;48.722;9.362;2023-09-12T02:02:31;14.70;99.90
46590;DHT22;32313;48.722;9.362;2023-09-12T02:05:18;14.70;99.90
46590;DHT22;32313;48.722;9.362;2023-09-12T02:07:45;14.70;99.90
46590;DHT22;32313;48.722;9.362;2023-09-12T02:10:12;14.70;99.90
46590;DHT22;32313;48.722;9.362;2023-09-12T02:12:38;14.70;99.90
46590;DHT22;32313;48.722;9.362;2023-09-12T02:15:04;14.70;99.90
46590;DHT22;32313;48.722;9.362;2023-09-12T02:17:30;14.70;99.90
46590;DHT22;32313;48.722;9.362;2023-09-12T02:19:56;14.60;99.90
46590;DHT22;32313;48.722;9.362;2023-09-12T02:22:21;14.60;99.90
46590;DHT22;32313;48.722;9.362;2023-09-12T02:24:47;14.60;99.90
46590;DHT22;32313;48.722;9.362;2023-09-12T02:27:13;14.60;99.90
46590;DHT22;32313;48.722;9.362;2023-09-12T02:29:40;14.60;99.90
46590;DHT22;32313;48.722;9.362;2023-09-12T02:32:06;14.60;99.90
46590;DHT22;32313;48.722;9.362;2023-09-12T02:34:32;14.70;99.90
46590;DHT22;32313;48.722;9.362;2023-09-12T02:36:58;14.80;99.90
46590;DHT22;32313;48.722;9.362;2023-09-12T02:39:24;14.90;99.90
46590;DHT22;32313;48.722;9.362;2023-09-12T02:41:50;14.90;99.90
46590;DHT22;32313;48.722;9.362;2023-09-12T02:44:15;14.90;99.90
46590;DHT22;32313;48.722;9.362;2023-09-12T02:46:42;14.90;99.90
46590;DHT22;32313;48.722;9.362;2023-09-12T02:49:07;14.90;99.90
46590;DHT22;32313;48.722;9.362;2023-09-12T02:51:33;14.90;99.90
46590;DHT22;32313;48.722;9.362;2023-09-12T02:53:59;14.90;99.90
46590;DHT22;32313;48.722;9.362;2023-09-12T02:56:25;14.90;99.90
46590;DHT22;32313;48.722;9.362;2023-09-12T02:58:50;14.90;99.90
46590;DHT22;32313;48.722;9.362;2023-09-12T03:01:20;14.90;99.90
46590;DHT22;32313;48.722;9.362;2023-09-12T03:03:47;14.90;99.90
46590;DHT22;32313;48.722;9.362;2023-09-12T03:06:14;14.90;99.90
46590;DHT22;32313;48.722;9.362;2023-09-12T03:08:41;14.90;99.90
46590;DHT22;32313;48.722;9.362;2023-09-12T03:11:07;14.90;99.90
46590;DHT22;32313;48.722;9.362;2023-09-12T03:13:34;14.80;99.90
46590;DHT22;32313;48.722;9.362;2023-09-12T03:16:00;14.80;99.90
46590;DHT22;32313;48.722;9.362;2023-09-12T03:18:26;14.70;99.90
46590;DHT22;32313;48.722;9.362;2023-09-12T03:20:52;14.60;99.90
46590;DHT22;32313;48.722;9.362;2023-09-12T03:23:19;14.50;99.90
46590;DHT22;32313;48.722;9.362;2023-09-12T03:25:45;14.50;99.90
46590;DHT22;32313;48.722;9.362;2023-09-12T03:28:11;14.40;99.90
46590;DHT22;32313;48.722;9.362;2023-09-12T03:30:38;14.30;99.90
46590;DHT22;32313;48.722;9.362;2023-09-12T03:33:05;14.30;99.90
46590;DHT22;32313;48.722;9.362;2023-09-12T03:35:34;14.20;99.90
46590;DHT22;32313;48.722;9.362;2023-09-12T03:38:00;14.20;99.90
46590;DHT22;32313;48.722;9.362;2023-09-12T03:40:30;14.20;99.90
46590;DHT22;32313;48.722;9.362;2023-09-12T03:42:56;14.20;99.90
46590;DHT22;32313;48.722;9.362;2023-09-12T03:45:23;14.20;99.90
46590;DHT22;32313;48.722;9.362;2023-09-12T03:47:49;14.20;99.90
46590;DHT22;32313;48.722;9.362;2023-09-12T03:50:15;14.10;99.90
46590;DHT22;32313;48.722;9.362;2023-09-12T03:52:41;14.10;99.90
46590;DHT22;32313;48.722;9.362;2023-09-12T03:55:07;14.10;99.90
46590;DHT22;32313;48.722;9.362;2023-09-12T03:57:33;14.10;99.90
46590;DHT22;32313;48.722;9.362;2023-09-12T03:59:59;14.10;99.90
46590;DHT22;32313;48.722;9.362;2023-09-12T04:02:25;14.10;99.90
46590;DHT22;32313;48.722;9.362;2023-09-12T04:04:50;14.10;99.90
46590;DHT22;32313;48.722;9.362;2023-09-12T04:07:18;14.20;99.90
46590;DHT22;32313;48.722;9.362;2023-09-12T04:09:43;14.20;99.90
46590;DHT22;32313;48.722;9.362;2023-09-12T04:12:09;14.30;99.90
46590;DHT22;32313;48.722;9.362;2023-09-12T04:14:35;14.30;99.90
46590;DHT22;32313;48.722;9.362;2023-09-12T04:17:01;14.30;99.90
46590;DHT22;32313;48.722;9.362;2023-09-12T04:19:28;14.30;99.90
46590;DHT22;32313;48.722;9.362;2023-09-12T04:21:53;14.20;99.90
46590;DHT22;32313;48.722;9.362;2023-09-12T04:24:19;14.20;99.90
46590;DHT22;32313;48.722;9.362;2023-09-12T04:26:46;14.10;99.90
46590;DHT22;32313;48.722;9.362;2023-09-12T04:29:12;14.10;99.90
46590;DHT22;32313;48.722;9.362;2023-09-12T04:31:37;14.00;99.90
46590;DHT22;32313;48.722;9.362;2023-09-12T04:34:03;14.00;99.90
46590;DHT22;32313;48.722;9.362;2023-09-12T04:36:29;13.90;99.90
46590;DHT22;32313;48.722;9.362;2023-09-12T04:38:54;13.90;99.90
46590;DHT22;32313;48.722;9.362;2023-09-12T04:41:20;13.90;99.90
46590;DHT22;32313;48.722;9.362;2023-09-12T04:43:46;13.90;99.90
46590;DHT22;32313;48.722;9.362;2023-09-12T04:46:12;13.90;99.90
46590;DHT22;32313;48.722;9.362;2023-09-12T04:48:39;13.90;99.90
46590;DHT22;32313;48.722;9.362;2023-09-12T04:51:04;13.90;99.90
46590;DHT22;32313;48.722;9.362;2023-09-12T04:53:30;14.00;99.90
46590;DHT22;32313;48.722;9.362;2023-09-12T04:56:01;13.90;99.90
46590;DHT22;32313;48.722;9.362;2023-09-12T04:58:29;13.90;99.90
46590;DHT22;32313;48.722;9.362;2023-09-12T05:00:55;13.90;99.90
46590;DHT22;32313;48.722;9.362;2023-09-12T05:03:22;13.90;99.90
46590;DHT22;32313;48.722;9.362;2023-09-12T05:05:48;13.90;99.90
46590;DHT22;32313;48.722;9.362;2023-09-12T05:08:16;13.90;99.90
46590;DHT22;32313;48.722;9.362;2023-09-12T05:10:44;14.00;99.90
46590;DHT22;32313;48.722;9.362;2023-09-12T05:13:09;14.00;99.90
46590;DHT22;32313;48.722;9.362;2023-09-12T05:15:35;14.00;99.90
46590;DHT22;32313;48.722;9.362;2023-09-12T05:18:02;14.00;99.90
46590;DHT22;32313;48.722;9.362;2023-09-12T05:20:28;14.10;99.90
46590;DHT22;32313;48.722;9.362;2023-09-12T05:22:54;14.20;99.90
46590;DHT22;32313;48.722;9.362;2023-09-12T05:25:19;14.20;99.90
46590;DHT22;32313;48.722;9.362;2023-09-12T05:27:45;14.20;99.90
46590;DHT22;32313;48.722;9.362;2023-09-12T05:30:11;14.30;99.90
46590;DHT22;32313;48.722;9.362;2023-09-12T05:32:37;14.40;99.90
46590;DHT22;32313;48.722;9.362;2023-09-12T05:35:03;14.50;99.90
46590;DHT22;32313;48.722;9.362;2023-09-12T05:37:29;14.60;99.90
46590;DHT22;32313;48.722;9.362;2023-09-12T05:39:55;14.70;99.90
46590;DHT22;32313;48.722;9.362;2023-09-12T05:42:20;14.70;99.90
46590;DHT22;32313;48.722;9.362;2023-09-12T05:44:48;14.80;99.90
46590;DHT22;32313;48.722;9.362;2023-09-12T05:47:15;14.90;99.90
46590;DHT22;32313;48.722;9.362;2023-09-12T05:49:41;15.00;99.90
46590;DHT22;32313;48.722;9.362;2023-09-12T05:52:07;15.10;99.90
46590;DHT22;32313;48.722;9.362;2023-09-12T05:54:33;15.20;99.90
46590;DHT22;32313;48.722;9.362;2023-09-12T05:56:59;15.40;99.90
46590;DHT22;32313;48.722;9.362;2023-09-12T05:59:25;15.50;99.90
46590;DHT22;32313;48.722;9.362;2023-09-12T06:01:50;15.70;99.90
46590;DHT22;32313;48.722;9.362;2023-09-12T06:04:18;15.90;99.90
46590;DHT22;32313;48.722;9.362;2023-09-12T06:06:43;16.00;99.90
46590;DHT22;32313;48.722;9.362;2023-09-12T06:09:09;16.20;99.90
46590;DHT22;32313;48.722;9.362;2023-09-12T06:11:34;16.40;99.90
46590;DHT22;32313;48.722;9.362;2023-09-12T06:14:00;16.50;99.90
46590;DHT22;32313;48.722;9.362;2023-09-12T06:16:26;16.70;99.90
46590;DHT22;32313;48.722;9.362;2023-09-12T06:18:52;16.90;99.90
46590;DHT22;32313;48.722;9.362;2023-09-12T06:21:19;17.10;99.90
46590;DHT22;32313;48.722;9.362;2023-09-12T06:24:13;17.20;99.90
46590;DHT22;32313;48.722;9.362;2023-09-12T06:26:39;17.30;99.90
46590;DHT22;32313;48.722;9.362;2023-09-12T06:29:05;17.50;99.90
46590;DHT22;32313;48.722;9.362;2023-09-12T06:31:31;18.30;99.90
46590;DHT22;32313;48.722;9.362;2023-09-12T06:33:57;18.90;99.90
46590;DHT22;32313;48.722;9.362;2023-09-12T06:36:24;19.10;99.90
46590;DHT22;32313;48.722;9.362;2023-09-12T06:38:50;19.10;99.90
46590;DHT22;32313;48.722;9.362;2023-09-12T06:41:19;19.60;99.90
46590;DHT22;32313;48.722;9.362;2023-09-12T06:43:44;19.80;99.90
46590;DHT22;32313;48.722;9.362;2023-09-12T06:46:10;19.80;99.90
46590;DHT22;32313;48.722;9.362;2023-09-12T06:48:36;20.00;99.90
46590;DHT22;32313;48.722;9.362;2023-09-12T06:51:05;20.10;99.90
46590;DHT22;32313;48.722;9.362;2023-09-12T06:53:31;20.20;99.90
46590;DHT22;32313;48.722;9.362;2023-09-12T06:55:56;20.20;99.90
46590;DHT22;32313;48.722;9.362;2023-09-12T06:58:23;20.10;99.90
46590;DHT22;32313;48.722;9.362;2023-09-12T07:00:48;20.30;99.90
46590;DHT22;32313;48.722;9.362;2023-09-12T07:03:14;20.50;99.90
46590;DHT22;32313;48.722;9.362;2023-09-12T07:05:41;20.40;99.90
46590;DHT22;32313;48.722;9.362;2023-09-12T07:08:07;20.40;99.90
46590;DHT22;32313;48.722;9.362;2023-09-12T07:10:34;20.30;99.90
46590;DHT22;32313;48.722;9.362;2023-09-12T07:13:00;20.20;99.90
46590;DHT22;32313;48.722;9.362;2023-09-12T07:15:25;20.20;99.90
46590;DHT22;32313;48.722;9.362;2023-09-12T07:17:51;20.00;99.90
46590;DHT22;32313;48.722;9.362;2023-09-12T07:20:18;20.00;99.90
46590;DHT22;32313;48.722;9.362;2023-09-12T07:22:46;20.00;99.90
46590;DHT22;32313;48.722;9.362;2023-09-12T07:25:13;20.10;99.90
46590;DHT22;32313;48.722;9.362;2023-09-12T07:27:39;20.50;99.90
46590;DHT22;32313;48.722;9.362;2023-09-12T07:30:06;20.80;99.90
46590;DHT22;32313;48.722;9.362;2023-09-12T07:32:32;21.50;99.90
46590;DHT22;32313;48.722;9.362;2023-09-12T07:34:58;22.10;99.90
46590;DHT22;32313;48.722;9.362;2023-09-12T07:37:24;21.90;99.90
46590;DHT22;32313;48.722;9.362;2023-09-12T07:39:50;21.50;99.90
46590;DHT22;32313;48.722;9.362;2023-09-12T07:42:15;21.30;99.90
46590;DHT22;32313;48.722;9.362;2023-09-12T07:44:41;21.00;99.90
46590;DHT22;32313;48.722;9.362;2023-09-12T07:47:07;20.90;99.90
46590;DHT22;32313;48.722;9.362;2023-09-12T07:49:33;21.10;99.90
46590;DHT22;32313;48.722;9.362;2023-09-12T07:51:58;21.20;99.90
46590;DHT22;32313;48.722;9.362;2023-09-12T07:54:24;21.40;99.90
46590;DHT22;32313;48.722;9.362;2023-09-12T07:56:49;22.00;99.90
46590;DHT22;32313;48.722;9.362;2023-09-12T07:59:15;23.10;99.90
46590;DHT22;32313;48.722;9.362;2023-09-12T08:01:41;24.30;99.90
46590;DHT22;32313;48.722;9.362;2023-09-12T08:04:06;25.20;99.90
46590;DHT22;32313;48.722;9.362;2023-09-12T08:06:32;26.10;99.90
46590;DHT22;32313;48.722;9.362;2023-09-12T08:08:58;26.60;99.90
46590;DHT22;32313;48.722;9.362;2023-09-12T08:11:24;26.70;99.90
46590;DHT22;32313;48.722;9.362;2023-09-12T08:13:50;25.90;99.90
46590;DHT22;32313;48.722;9.362;2023-09-12T08:16:16;25.80;99.90
46590;DHT22;32313;48.722;9.362;2023-09-12T08:18:42;26.10;99.90
46590;DHT22;32313;48.722;9.362;2023-09-12T08:21:07;25.80;99.90
46590;DHT22;32313;48.722;9.362;2023-09-12T08:23:33;25.20;99.90
46590;DHT22;32313;48.722;9.362;2023-09-12T08:26:00;25.50;99.90
46590;DHT22;32313;48.722;9.362;2023-09-12T08:28:25;25.90;99.90
46590;DHT22;32313;48.722;9.362;2023-09-12T08:30:51;26.20;99.90
46590;DHT22;32313;48.722;9.362;2023-09-12T08:33:17;26.20;99.90
46590;DHT22;32313;48.722;9.362;2023-09-12T08:35:43;26.40;99.90
46590;DHT22;32313;48.722;9.362;2023-09-12T08:38:09;26.90;99.90
46590;DHT22;32313;48.722;9.362;2023-09-12T08:40:35;27.20;99.90
46590;DHT22;32313;48.722;9.362;2023-09-12T08:43:01;27.40;99.90
46590;DHT22;32313;48.722;9.362;2023-09-12T08:45:29;26.90;99.90
46590;DHT22;32313;48.722;9.362;2023-09-12T08:47:58;26.60;99.90
46590;DHT22;32313;48.722;9.362;2023-09-12T08:50:24;26.80;99.90
46590;DHT22;32313;48.722;9.362;2023-09-12T08:52:50;27.40;99.90
46590;DHT22;32313;48.722;9.362;2023-09-12T08:55:16;28.00;99.90
46590;DHT22;32313;48.722;9.362;2023-09-12T08:57:42;28.80;99.90
46590;DHT22;32313;48.722;9.362;2023-09-12T09:00:09;29.50;99.90
46590;DHT22;32313;48.722;9.362;2023-09-12T09:02:41;30.10;99.90
46590;DHT22;32313;48.722;9.362;2023-09-12T09:05:09;30.40;99.90
46590;DHT22;32313;48.722;9.362;2023-09-12T09:07:39;30.70;99.90
46590;DHT22;32313;48.722;9.362;2023-09-12T09:10:07;30.80;99.90
46590;DHT22;32313;48.722;9.362;2023-09-12T09:12:37;30.80;99.90
46590;DHT22;32313;48.722;9.362;2023-09-12T09:17:49;31.00;99.90
46590;DHT22;32313;48.722;9.362;2023-09-12T09:20:33;31.50;99.90
46590;DHT22;32313;48.722;9.362;2023-09-12T09:23:00;31.80;99.90
46590;DHT22;32313;48.722;9.362;2023-09-12T09:25:27;32.30;99.90
46590;DHT22;32313;48.722;9.362;2023-09-12T09:27:53;32.50;99.90
46590;DHT22;32313;48.722;9.362;2023-09-12T09:30:42;32.70;99.90
46590;DHT22;32313;48.722;9.362;2023-09-12T09:33:08;33.00;98.30
46590;DHT22;32313;48.722;9.362;2023-09-12T09:35:35;33.20;98.30
46590;DHT22;32313;48.722;9.362;2023-09-12T09:38:02;33.50;97.70
46590;DHT22;32313;48.722;9.362;2023-09-12T09:40:28;33.50;96.20
46590;DHT22;32313;48.722;9.362;2023-09-12T09:42:55;33.60;95.70
46590;DHT22;32313;48.722;9.362;2023-09-12T09:45:21;33.70;95.20
46590;DHT22;32313;48.722;9.362;2023-09-12T09:47:49;33.40;95.20
46590;DHT22;32313;48.722;9.362;2023-09-12T09:50:16;33.50;94.40
46590;DHT22;32313;48.722;9.362;2023-09-12T09:52:43;33.90;93.90
46590;DHT22;32313;48.722;9.362;2023-09-12T09:55:15;34.00;92.20
46590;DHT22;32313;48.722;9.362;2023-09-12T09:57:41;34.00;92.90
46590;DHT22;32313;48.722;9.362;2023-09-12T10:00:07;33.90;92.20
46590;DHT22;32313;48.722;9.362;2023-09-12T10:02:35;34.00;91.70
46590;DHT22;32313;48.722;9.362;2023-09-12T10:05:04;34.00;90.40
46590;DHT22;32313;48.722;9.362;2023-09-12T10:07:32;33.50;90.60
46590;DHT22;32313;48.722;9.362;2023-09-12T10:10:02;33.50;90.20
46590;DHT22;32313;48.722;9.362;2023-09-12T10:12:35;33.70;91.10
46590;DHT22;32313;48.722;9.362;2023-09-12T10:15:01;34.00;90.00
46590;DHT22;32313;48.722;9.362;2023-09-12T10:17:35;34.40;88.60
46590;DHT22;32313;48.722;9.362;2023-09-12T10:20:03;34.80;88.50
46590;DHT22;32313;48.722;9.362;2023-09-12T10:23:03;35.60;85.00
46590;DHT22;32313;48.722;9.362;2023-09-12T10:25:35;36.10;83.20
46590;DHT22;32313;48.722;9.362;2023-09-12T10:28:04;36.40;82.00
46590;DHT22;32313;48.722;9.362;2023-09-12T10:30:30;36.30;82.40
46590;DHT22;32313;48.722;9.362;2023-09-12T10:32:57;36.30;81.20
46590;DHT22;32313;48.722;9.362;2023-09-12T10:35:23;35.80;79.00
46590;DHT22;32313;48.722;9.362;2023-09-12T10:37:49;36.00;78.90
46590;DHT22;32313;48.722;9.362;2023-09-12T10:40:17;36.30;79.20
46590;DHT22;32313;48.722;9.362;2023-09-12T10:42:43;36.50;80.70
46590;DHT22;32313;48.722;9.362;2023-09-12T10:45:10;36.80;78.00
46590;DHT22;32313;48.722;9.362;2023-09-12T10:47:36;36.70;74.10
46590;DHT22;32313;48.722;9.362;2023-09-12T10:50:02;37.00;71.90
46590;DHT22;32313;48.722;9.362;2023-09-12T10:52:29;36.90;72.90
46590;DHT22;32313;48.722;9.362;2023-09-12T10:54:55;36.30;73.70
46590;DHT22;32313;48.722;9.362;2023-09-12T10:57:21;35.90;73.40
46590;DHT22;32313;48.722;9.362;2023-09-12T11:02:33;36.20;74.60
46590;DHT22;32313;48.722;9.362;2023-09-12T11:05:01;36.40;71.30
46590;DHT22;32313;48.722;9.362;2023-09-12T11:12:50;36.30;72.60
46590;DHT22;32313;48.722;9.362;2023-09-12T11:15:16;36.80;71.90
46590;DHT22;32313;48.722;9.362;2023-09-12T11:17:51;37.00;70.20
46590;DHT22;32313;48.722;9.362;2023-09-12T11:20:24;36.80;68.70
46590;DHT22;32313;48.722;9.362;2023-09-12T11:22:50;36.70;68.50
46590;DHT22;32313;48.722;9.362;2023-09-12T11:30:23;37.70;61.70
46590;DHT22;32313;48.722;9.362;2023-09-12T11:32:51;38.10;62.40
46590;DHT22;32313;48.722;9.362;2023-09-12T11:35:22;38.20;61.00
46590;DHT22;32313;48.722;9.362;2023-09-12T11:37:50;38.20;56.80
46590;DHT22;32313;48.722;9.362;2023-09-12T11:40:16;38.30;58.90
46590;DHT22;32313;48.722;9.362;2023-09-12T11:42:43;38.30;58.60
46590;DHT22;32313;48.722;9.362;2023-09-12T11:45:10;38.10;58.80
46590;DHT22;32313;48.722;9.362;2023-09-12T11:47:43;37.70;58.60
46590;DHT22;32313;48.722;9.362;2023-09-12T11:50:32;37.60;55.40
46590;DHT22;32313;48.722;9.362;2023-09-12T11:53:09;37.90;56.20
46590;DHT22;32313;48.722;9.362;2023-09-12T11:58:03;38.20;52.80
46590;DHT22;32313;48.722;9.362;2023-09-12T12:00:29;38.30;52.50
46590;DHT22;32313;48.722;9.362;2023-09-12T12:02:55;39.20;49.90
46590;DHT22;32313;48.722;9.362;2023-09-12T12:05:22;39.70;48.20
46590;DHT22;32313;48.722;9.362;2023-09-12T12:07:48;40.20;49.90
46590;DHT22;32313;48.722;9.362;2023-09-12T12:10:18;40.60;48.80
46590;DHT22;32313;48.722;9.362;2023-09-12T12:12:45;40.30;48.50
46590;DHT22;32313;48.722;9.362;2023-09-12T12:15:13;38.90;49.30
46590;DHT22;32313;48.722;9.362;2023-09-12T12:17:42;38.30;50.50
46590;DHT22;32313;48.722;9.362;2023-09-12T12:20:09;38.60;50.50
46590;DHT22;32313;48.722;9.362;2023-09-12T12:22:39;38.60;49.40
46590;DHT22;32313;48.722;9.362;2023-09-12T12:25:09;38.50;50.10
46590;DHT22;32313;48.722;9.362;2023-09-12T12:27:38;38.90;48.60
46590;DHT22;32313;48.722;9.362;2023-09-12T12:30:06;39.30;48.40
46590;DHT22;32313;48.722;9.362;2023-09-12T12:32:33;39.50;47.90
46590;DHT22;32313;48.722;9.362;2023-09-12T12:34:58;39.70;45.60
46590;DHT22;32313;48.722;9.362;2023-09-12T12:37:29;39.90;46.60
46590;DHT22;32313;48.722;9.362;2023-09-12T12:39:59;40.50;46.40
46590;DHT22;32313;48.722;9.362;2023-09-12T12:42:32;41.10;43.70
46590;DHT22;32313;48.722;9.362;2023-09-12T12:44:58;40.90;44.80
46590;DHT22;32313;48.722;9.362;2023-09-12T12:47:23;40.90;44.80
46590;DHT22;32313;48.722;9.362;2023-09-12T12:49:52;40.80;44.10
46590;DHT22;32313;48.722;9.362;2023-09-12T12:52:24;40.70;44.20
46590;DHT22;32313;48.722;9.362;2023-09-12T12:54:52;40.30;43.70
46590;DHT22;32313;48.722;9.362;2023-09-12T12:57:20;40.40;44.30
46590;DHT22;32313;48.722;9.362;2023-09-12T12:59:48;40.20;42.80
46590;DHT22;32313;48.722;9.362;2023-09-12T13:02:14;39.60;43.50
46590;DHT22;32313;48.722;9.362;2023-09-12T13:04:40;39.20;44.50
46590;DHT22;32313;48.722;9.362;2023-09-12T13:07:05;39.30;44.80
46590;DHT22;32313;48.722;9.362;2023-09-12T13:09:32;39.90;44.40
46590;DHT22;32313;48.722;9.362;2023-09-12T13:11:58;40.20;42.70
46590;DHT22;32313;48.722;9.362;2023-09-12T13:14:24;40.30;43.70
46590;DHT22;32313;48.722;9.362;2023-09-12T13:16:57;40.10;42.70
46590;DHT22;32313;48.722;9.362;2023-09-12T13:19:22;39.30;42.80
46590;DHT22;32313;48.722;9.362;2023-09-12T13:21:48;39.10;44.00
46590;DHT22;32313;48.722;9.362;2023-09-12T13:24:14;39.40;43.40
46590;DHT22;32313;48.722;9.362;2023-09-12T13:26:39;40.00;43.70
46590;DHT22;32313;48.722;9.362;2023-09-12T13:29:05;40.60;43.30
46590;DHT22;32313;48.722;9.362;2023-09-12T13:31:31;41.00;43.00
46590;DHT22;32313;48.722;9.362;2023-09-12T13:33:57;41.00;41.90
46590;DHT22;32313;48.722;9.362;2023-09-12T13:36:23;40.60;42.80
46590;DHT22;32313;48.722;9.362;2023-09-12T13:38:52;40.30;41.50
46590;DHT22;32313;48.722;9.362;2023-09-12T13:41:18;40.00;42.60
46590;DHT22;32313;48.722;9.362;2023-09-12T13:43:43;40.10;43.10
46590;DHT22;32313;48.722;9.362;2023-09-12T13:46:12;40.30;41.90
46590;DHT22;32313;48.722;9.362;2023-09-12T13:48:38;40.00;42.40
46590;DHT22;32313;48.722;9.362;2023-09-12T13:51:04;39.50;42.50
46590;DHT22;32313;48.722;9.362;2023-09-12T13:53:31;39.50;43.50
46590;DHT22;32313;48.722;9.362;2023-09-12T13:55:58;40.20;43.30
46590;DHT22;32313;48.722;9.362;2023-09-12T13:58:25;40.70;41.90
46590;DHT22;32313;48.722;9.362;2023-09-12T14:00:51;40.20;42.30
46590;DHT22;32313;48.722;9.362;2023-09-12T14:03:17;39.50;42.80
46590;DHT22;32313;48.722;9.362;2023-09-12T14:05:43;39.00;42.50
46590;DHT22;32313;48.722;9.362;2023-09-12T14:08:08;38.70;43.60
46590;DHT22;32313;48.722;9.362;2023-09-12T14:10:35;38.60;43.50
46590;DHT22;32313;48.722;9.362;2023-09-12T14:13:00;38.60;43.30
46590;DHT22;32313;48.722;9.362;2023-09-12T14:15:26;38.90;42.80
46590;DHT22;32313;48.722;9.362;2023-09-12T14:17:52;39.60;42.90
46590;DHT22;32313;48.722;9.362;2023-09-12T14:20:18;39.70;44.20
46590;DHT22;32313;48.722;9.362;2023-09-12T14:22:44;39.00;45.70
46590;DHT22;32313;48.722;9.362;2023-09-12T14:25:10;37.80;48.40
46590;DHT22;32313;48.722;9.362;2023-09-12T14:27:43;36.60;49.80
46590;DHT22;32313;48.722;9.362;2023-09-12T14:30:11;35.50;52.60
46590;DHT22;32313;48.722;9.362;2023-09-12T14:32:39;34.40;54.90
46590;DHT22;32313;48.722;9.362;2023-09-12T14:35:05;33.50;57.20
46590;DHT22;32313;48.722;9.362;2023-09-12T14:37:32;32.90;58.70
46590;DHT22;32313;48.722;9.362;2023-09-12T14:39:58;32.30;60.20
46590;DHT22;32313;48.722;9.362;2023-09-12T14:42:24;31.80;61.30
46590;DHT22;32313;48.722;9.362;2023-09-12T14:44:50;31.40;62.20
46590;DHT22;32313;48.722;9.362;2023-09-12T14:47:16;31.10;63.20
46590;DHT22;32313;48.722;9.362;2023-09-12T14:49:41;30.80;64.50
46590;DHT22;32313;48.722;9.362;2023-09-12T14:52:07;30.50;65.50
46590;DHT22;32313;48.722;9.362;2023-09-12T14:54:33;30.20;66.10
46590;DHT22;32313;48.722;9.362;2023-09-12T14:56:59;30.00;66.50
46590;DHT22;32313;48.722;9.362;2023-09-12T14:59:24;29.90;66.80
46590;DHT22;32313;48.722;9.362;2023-09-12T15:01:50;29.70;67.80
46590;DHT22;32313;48.722;9.362;2023-09-12T15:04:15;29.70;69.10
46590;DHT22;32313;48.722;9.362;2023-09-12T15:06:41;29.50;69.10
46590;DHT22;32313;48.722;9.362;2023-09-12T15:09:07;29.40;69.70
46590;DHT22;32313;48.722;9.362;2023-09-12T15:11:33;29.30;70.10
46590;DHT22;32313;48.722;9.362;2023-09-12T15:13:58;29.20;70.40
46590;DHT22;32313;48.722;9.362;2023-09-12T15:16:27;29.10;70.70
46590;DHT22;32313;48.722;9.362;2023-09-12T15:18:56;29.10;71.50
46590;DHT22;32313;48.722;9.362;2023-09-12T15:21:22;29.00;71.90
46590;DHT22;32313;48.722;9.362;2023-09-12T15:23:47;29.00;72.00
46590;DHT22;32313;48.722;9.362;2023-09-12T15:26:13;29.00;72.70
46590;DHT22;32313;48.722;9.362;2023-09-12T15:28:39;29.00;73.20
46590;DHT22;32313;48.722;9.362;2023-09-12T15:31:04;28.90;73.10
46590;DHT22;32313;48.722;9.362;2023-09-12T15:33:30;28.90;73.80
46590;DHT22;32313;48.722;9.362;2023-09-12T15:35:56;28.80;73.70
46590;DHT22;32313;48.722;9.362;2023-09-12T15:38:22;28.80;74.30
46590;DHT22;32313;48.722;9.362;2023-09-12T15:40:48;28.70;74.30
46590;DHT22;32313;48.722;9.362;2023-09-12T15:43:13;28.50;74.50
46590;DHT22;32313;48.722;9.362;2023-09-12T15:45:39;28.40;75.00
46590;DHT22;32313;48.722;9.362;2023-09-12T15:48:05;28.20;76.70
46590;DHT22;32313;48.722;9.362;2023-09-12T15:50:31;28.10;77.00